sensor_id;sensor_type;location;lat;lon;timestamp;P1;durP1;ratioP1;P2;durP2;ratioP2
70924;SDS011;58577;52.410;13.242;2023-01-19T00:01:14;32.75;;;14.85;;
70924;SDS011;58577;52.410;13.242;2023-01-19T00:04:00;36.25;;;13.77;;
70924;SDS011;58577;52.410;13.242;2023-01-19T00:06:46;32.45;;;14.50;;
70924;SDS011;58577;52.410;13.242;2023-01-19T00:09:32;33.90;;;15.77;;
70924;SDS011;58577;52.410;13.242;2023-01-19T00:12:18;37.58;;;16.25;;
70924;SDS011;58577;52.410;13.242;2023-01-19T00:15:04;37.33;;;16.38;;
70924;SDS011;58577;52.410;13.242;2023-01-19T00:17:50;35.58;;;15.38;;
70924;SDS011;58577;52.410;13.242;2023-01-19T00:20:36;36.42;;;15.35;;
70924;SDS011;58577;52.410;13.242;2023-01-19T00:23:22;33.50;;;14.25;;
70924;SDS011;58577;52.410;13.242;2023-01-19T00:26:08;33.75;;;14.80;;
70924;SDS011;58577;52.410;13.242;2023-01-19T00:28:55;33.42;;;14.07;;
70924;SDS011;58577;52.410;13.242;2023-01-19T00:31:40;37.20;;;14.07;;
70924;SDS011;58577;52.410;13.242;2023-01-19T00:34:26;31.77;;;13.23;;
70924;SDS011;58577;52.410;13.242;2023-01-19T00:37:21;30.70;;;13.93;;
70924;SDS011;58577;52.410;13.242;2023-01-19T00:40:07;33.35;;;13.90;;
70924;SDS011;58577;52.410;13.242;2023-01-19T00:42:53;32.80;;;14.05;;
70924;SDS011;58577;52.410;13.242;2023-01-19T00:45:39;32.65;;;13.43;;
70924;SDS011;58577;52.410;13.242;2023-01-19T00:48:26;31.42;;;13.30;;
70924;SDS011;58577;52.410;13.242;2023-01-19T00:51:12;28.63;;;13.48;;
70924;SDS011;58577;52.410;13.242;2023-01-19T00:53:58;26.05;;;12.65;;
70924;SDS011;58577;52.410;13.242;2023-01-19T00:56:49;29.45;;;14.02;;
70924;SDS011;58577;52.410;13.242;2023-01-19T00:59:34;32.92;;;15.07;;
70924;SDS011;58577;52.410;13.242;2023-01-19T01:02:20;30.55;;;12.35;;
70924;SDS011;58577;52.410;13.242;2023-01-19T01:05:06;31.52;;;12.25;;
70924;SDS011;58577;52.410;13.242;2023-01-19T01:07:53;31.15;;;12.68;;
70924;SDS011;58577;52.410;13.242;2023-01-19T01:10:38;29.40;;;13.55;;
70924;SDS011;58577;52.410;13.242;2023-01-19T01:13:24;33.72;;;12.95;;
70924;SDS011;58577;52.410;13.242;2023-01-19T01:16:13;30.08;;;13.80;;
70924;SDS011;58577;52.410;13.242;2023-01-19T01:18:59;30.02;;;13.50;;
70924;SDS011;58577;52.410;13.242;2023-01-19T01:21:45;32.10;;;14.65;;
70924;SDS011;58577;52.410;13.242;2023-01-19T01:24:31;32.13;;;13.00;;
70924;SDS011;58577;52.410;13.242;2023-01-19T01:27:17;30.63;;;12.70;;
70924;SDS011;58577;52.410;13.242;2023-01-19T01:30:03;30.48;;;12.60;;
70924;SDS011;58577;52.410;13.242;2023-01-19T01:32:49;30.20;;;12.90;;
70924;SDS011;58577;52.410;13.242;2023-01-19T01:35:35;32.92;;;12.65;;
70924;SDS011;58577;52.410;13.242;2023-01-19T01:38:21;35.03;;;13.18;;
70924;SDS011;58577;52.410;13.242;2023-01-19T01:41:07;31.63;;;13.13;;
70924;SDS011;58577;52.410;13.242;2023-01-19T01:43:54;29.70;;;12.98;;
70924;SDS011;58577;52.410;13.242;2023-01-19T01:46:42;28.88;;;11.98;;
70924;SDS011;58577;52.410;13.242;2023-01-19T01:49:28;28.90;;;13.25;;
70924;SDS011;58577;52.410;13.242;2023-01-19T01:52:14;29.75;;;13.23;;
70924;SDS011;58577;52.410;13.242;2023-01-19T01:55:02;31.80;;;12.45;;
70924;SDS011;58577;52.410;13.242;2023-01-19T01:57:59;26.27;;;12.33;;
70924;SDS011;58577;52.410;13.242;2023-01-19T02:00:48;29.88;;;12.93;;
70924;SDS011;58577;52.410;13.242;2023-01-19T02:03:52;30.25;;;11.90;;
70924;SDS011;58577;52.410;13.242;2023-01-19T02:06:39;28.33;;;12.23;;
70924;SDS011;58577;52.410;13.242;2023-01-19T02:09:44;30.25;;;12.88;;
70924;SDS011;58577;52.410;13.242;2023-01-19T02:12:48;29.33;;;12.73;;
70924;SDS011;58577;52.410;13.242;2023-01-19T02:15:54;30.17;;;13.00;;
70924;SDS011;58577;52.410;13.242;2023-01-19T02:18:42;27.90;;;12.57;;
70924;SDS011;58577;52.410;13.242;2023-01-19T02:21:45;25.38;;;11.65;;
70924;SDS011;58577;52.410;13.242;2023-01-19T02:24:43;28.13;;;12.43;;
70924;SDS011;58577;52.410;13.242;2023-01-19T02:27:30;30.17;;;12.85;;
70924;SDS011;58577;52.410;13.242;2023-01-19T02:30:17;27.92;;;12.30;;
70924;SDS011;58577;52.410;13.242;2023-01-19T02:33:03;35.05;;;14.50;;
70924;SDS011;58577;52.410;13.242;2023-01-19T02:35:49;33.58;;;13.93;;
70924;SDS011;58577;52.410;13.242;2023-01-19T02:38:36;30.92;;;12.70;;
70924;SDS011;58577;52.410;13.242;2023-01-19T02:41:24;27.80;;;13.05;;
70924;SDS011;58577;52.410;13.242;2023-01-19T02:44:13;31.90;;;13.48;;
70924;SDS011;58577;52.410;13.242;2023-01-19T02:46:59;29.98;;;12.70;;
70924;SDS011;58577;52.410;13.242;2023-01-19T02:49:59;32.03;;;14.10;;
70924;SDS011;58577;52.410;13.242;2023-01-19T02:52:45;30.50;;;12.65;;
70924;SDS011;58577;52.410;13.242;2023-01-19T02:55:31;32.00;;;14.10;;
70924;SDS011;58577;52.410;13.242;2023-01-19T02:58:22;28.33;;;13.63;;
70924;SDS011;58577;52.410;13.242;2023-01-19T03:19:35;34.00;;;14.45;;
70924;SDS011;58577;52.410;13.242;2023-01-19T03:22:25;33.30;;;14.35;;
70924;SDS011;58577;52.410;13.242;2023-01-19T03:25:13;34.53;;;15.60;;
70924;SDS011;58577;52.410;13.242;2023-01-19T03:28:01;36.10;;;16.88;;
70924;SDS011;58577;52.410;13.242;2023-01-19T03:30:53;32.63;;;14.43;;
70924;SDS011;58577;52.410;13.242;2023-01-19T03:33:47;32.15;;;13.65;;
70924;SDS011;58577;52.410;13.242;2023-01-19T03:36:38;36.40;;;14.73;;
70924;SDS011;58577;52.410;13.242;2023-01-19T03:39:28;31.60;;;14.02;;
70924;SDS011;58577;52.410;13.242;2023-01-19T03:42:15;35.53;;;13.70;;
70924;SDS011;58577;52.410;13.242;2023-01-19T03:45:02;34.10;;;14.32;;
70924;SDS011;58577;52.410;13.242;2023-01-19T03:47:49;35.88;;;15.18;;
70924;SDS011;58577;52.410;13.242;2023-01-19T03:50:36;33.20;;;14.70;;
70924;SDS011;58577;52.410;13.242;2023-01-19T03:53:22;37.03;;;16.58;;
70924;SDS011;58577;52.410;13.242;2023-01-19T03:56:18;38.22;;;16.65;;
70924;SDS011;58577;52.410;13.242;2023-01-19T03:59:06;35.28;;;15.48;;
70924;SDS011;58577;52.410;13.242;2023-01-19T04:01:52;32.45;;;13.73;;
70924;SDS011;58577;52.410;13.242;2023-01-19T04:04:38;35.58;;;15.60;;
70924;SDS011;58577;52.410;13.242;2023-01-19T04:07:24;34.20;;;15.27;;
70924;SDS011;58577;52.410;13.242;2023-01-19T04:10:10;37.10;;;14.60;;
70924;SDS011;58577;52.410;13.242;2023-01-19T04:12:57;34.70;;;15.13;;
70924;SDS011;58577;52.410;13.242;2023-01-19T04:15:44;35.45;;;15.48;;
70924;SDS011;58577;52.410;13.242;2023-01-19T04:18:31;37.97;;;15.90;;
70924;SDS011;58577;52.410;13.242;2023-01-19T04:21:18;35.33;;;15.50;;
70924;SDS011;58577;52.410;13.242;2023-01-19T04:24:04;39.70;;;16.85;;
70924;SDS011;58577;52.410;13.242;2023-01-19T04:26:51;32.95;;;14.73;;
70924;SDS011;58577;52.410;13.242;2023-01-19T04:29:37;33.78;;;17.00;;
70924;SDS011;58577;52.410;13.242;2023-01-19T04:32:23;32.45;;;15.43;;
70924;SDS011;58577;52.410;13.242;2023-01-19T04:35:09;34.72;;;14.88;;
70924;SDS011;58577;52.410;13.242;2023-01-19T04:37:55;32.67;;;14.75;;
70924;SDS011;58577;52.410;13.242;2023-01-19T04:40:41;30.52;;;13.50;;
70924;SDS011;58577;52.410;13.242;2023-01-19T04:43:27;32.78;;;15.10;;
70924;SDS011;58577;52.410;13.242;2023-01-19T04:46:13;33.17;;;14.50;;
70924;SDS011;58577;52.410;13.242;2023-01-19T04:48:59;32.22;;;13.82;;
70924;SDS011;58577;52.410;13.242;2023-01-19T04:51:45;31.85;;;13.50;;
70924;SDS011;58577;52.410;13.242;2023-01-19T04:54:31;29.92;;;14.18;;
70924;SDS011;58577;52.410;13.242;2023-01-19T04:57:17;30.13;;;14.05;;
70924;SDS011;58577;52.410;13.242;2023-01-19T05:00:04;27.52;;;13.57;;
70924;SDS011;58577;52.410;13.242;2023-01-19T05:02:53;31.05;;;13.77;;
70924;SDS011;58577;52.410;13.242;2023-01-19T05:05:39;30.33;;;14.68;;
70924;SDS011;58577;52.410;13.242;2023-01-19T05:08:24;34.17;;;14.65;;
70924;SDS011;58577;52.410;13.242;2023-01-19T05:11:10;30.95;;;14.45;;
70924;SDS011;58577;52.410;13.242;2023-01-19T05:13:56;31.23;;;15.13;;
70924;SDS011;58577;52.410;13.242;2023-01-19T05:16:42;30.17;;;14.00;;
70924;SDS011;58577;52.410;13.242;2023-01-19T05:19:28;31.45;;;13.73;;
70924;SDS011;58577;52.410;13.242;2023-01-19T05:22:14;31.23;;;13.77;;
70924;SDS011;58577;52.410;13.242;2023-01-19T05:25:00;33.40;;;15.32;;
70924;SDS011;58577;52.410;13.242;2023-01-19T05:27:46;31.83;;;14.65;;
70924;SDS011;58577;52.410;13.242;2023-01-19T05:30:32;32.10;;;14.65;;
70924;SDS011;58577;52.410;13.242;2023-01-19T05:33:17;29.38;;;14.25;;
70924;SDS011;58577;52.410;13.242;2023-01-19T05:36:03;30.02;;;15.52;;
70924;SDS011;58577;52.410;13.242;2023-01-19T05:38:49;29.05;;;13.88;;
70924;SDS011;58577;52.410;13.242;2023-01-19T05:41:35;27.95;;;13.23;;
70924;SDS011;58577;52.410;13.242;2023-01-19T05:44:21;27.08;;;12.52;;
70924;SDS011;58577;52.410;13.242;2023-01-19T05:47:07;30.02;;;13.80;;
70924;SDS011;58577;52.410;13.242;2023-01-19T05:49:53;27.33;;;13.07;;
70924;SDS011;58577;52.410;13.242;2023-01-19T05:52:39;32.60;;;13.27;;
70924;SDS011;58577;52.410;13.242;2023-01-19T05:55:25;28.45;;;13.60;;
70924;SDS011;58577;52.410;13.242;2023-01-19T05:58:12;29.65;;;13.98;;
70924;SDS011;58577;52.410;13.242;2023-01-19T06:01:00;31.77;;;13.60;;
70924;SDS011;58577;52.410;13.242;2023-01-19T06:03:47;28.23;;;13.35;;
70924;SDS011;58577;52.410;13.242;2023-01-19T06:06:33;26.98;;;13.63;;
70924;SDS011;58577;52.410;13.242;2023-01-19T06:09:19;30.17;;;13.25;;
70924;SDS011;58577;52.410;13.242;2023-01-19T06:12:05;27.95;;;13.90;;
70924;SDS011;58577;52.410;13.242;2023-01-19T06:14:51;28.75;;;14.00;;
70924;SDS011;58577;52.410;13.242;2023-01-19T06:17:37;28.50;;;14.30;;
70924;SDS011;58577;52.410;13.242;2023-01-19T06:20:23;28.77;;;12.82;;
70924;SDS011;58577;52.410;13.242;2023-01-19T06:23:08;28.27;;;14.05;;
70924;SDS011;58577;52.410;13.242;2023-01-19T06:25:55;30.83;;;14.02;;
70924;SDS011;58577;52.410;13.242;2023-01-19T06:28:41;28.13;;;13.57;;
70924;SDS011;58577;52.410;13.242;2023-01-19T06:31:27;23.95;;;11.45;;
70924;SDS011;58577;52.410;13.242;2023-01-19T06:34:13;30.80;;;14.55;;
70924;SDS011;58577;52.410;13.242;2023-01-19T06:36:58;24.60;;;12.88;;
70924;SDS011;58577;52.410;13.242;2023-01-19T06:39:44;30.88;;;13.50;;
70924;SDS011;58577;52.410;13.242;2023-01-19T06:42:30;26.63;;;12.20;;
70924;SDS011;58577;52.410;13.242;2023-01-19T06:45:16;27.48;;;13.23;;
70924;SDS011;58577;52.410;13.242;2023-01-19T06:48:01;26.73;;;11.65;;
70924;SDS011;58577;52.410;13.242;2023-01-19T06:50:48;23.73;;;11.27;;
70924;SDS011;58577;52.410;13.242;2023-01-19T06:53:34;27.40;;;12.70;;
70924;SDS011;58577;52.410;13.242;2023-01-19T06:56:20;31.20;;;13.13;;
70924;SDS011;58577;52.410;13.242;2023-01-19T06:59:06;26.08;;;12.05;;
70924;SDS011;58577;52.410;13.242;2023-01-19T07:01:52;25.25;;;12.90;;
70924;SDS011;58577;52.410;13.242;2023-01-19T07:04:40;24.15;;;11.57;;
70924;SDS011;58577;52.410;13.242;2023-01-19T07:07:26;30.40;;;13.52;;
70924;SDS011;58577;52.410;13.242;2023-01-19T07:10:12;27.65;;;12.00;;
70924;SDS011;58577;52.410;13.242;2023-01-19T07:13:00;28.23;;;12.68;;
70924;SDS011;58577;52.410;13.242;2023-01-19T07:15:45;28.27;;;13.23;;
70924;SDS011;58577;52.410;13.242;2023-01-19T07:18:31;27.63;;;13.57;;
70924;SDS011;58577;52.410;13.242;2023-01-19T07:21:17;28.38;;;12.60;;
70924;SDS011;58577;52.410;13.242;2023-01-19T07:24:03;29.48;;;13.45;;
70924;SDS011;58577;52.410;13.242;2023-01-19T07:26:49;32.40;;;13.95;;
70924;SDS011;58577;52.410;13.242;2023-01-19T07:29:35;28.83;;;12.85;;
70924;SDS011;58577;52.410;13.242;2023-01-19T07:32:21;30.00;;;12.98;;
70924;SDS011;58577;52.410;13.242;2023-01-19T07:35:09;26.52;;;11.48;;
70924;SDS011;58577;52.410;13.242;2023-01-19T07:37:55;24.27;;;11.13;;
70924;SDS011;58577;52.410;13.242;2023-01-19T07:40:41;25.27;;;11.48;;
70924;SDS011;58577;52.410;13.242;2023-01-19T07:43:26;27.20;;;12.30;;
70924;SDS011;58577;52.410;13.242;2023-01-19T07:46:12;24.80;;;11.85;;
70924;SDS011;58577;52.410;13.242;2023-01-19T07:48:58;26.58;;;13.23;;
70924;SDS011;58577;52.410;13.242;2023-01-19T07:51:44;26.88;;;10.30;;
70924;SDS011;58577;52.410;13.242;2023-01-19T07:54:30;25.98;;;11.80;;
70924;SDS011;58577;52.410;13.242;2023-01-19T07:57:16;27.55;;;12.32;;
70924;SDS011;58577;52.410;13.242;2023-01-19T08:00:02;31.80;;;12.60;;
70924;SDS011;58577;52.410;13.242;2023-01-19T08:02:58;26.45;;;12.40;;
70924;SDS011;58577;52.410;13.242;2023-01-19T08:05:48;28.55;;;12.77;;
70924;SDS011;58577;52.410;13.242;2023-01-19T08:08:35;25.95;;;13.52;;
70924;SDS011;58577;52.410;13.242;2023-01-19T08:11:21;32.05;;;12.98;;
70924;SDS011;58577;52.410;13.242;2023-01-19T08:14:06;26.58;;;11.73;;
70924;SDS011;58577;52.410;13.242;2023-01-19T08:16:53;26.02;;;11.48;;
70924;SDS011;58577;52.410;13.242;2023-01-19T08:19:39;25.60;;;11.20;;
70924;SDS011;58577;52.410;13.242;2023-01-19T08:22:25;24.75;;;11.85;;
70924;SDS011;58577;52.410;13.242;2023-01-19T08:25:11;24.42;;;10.70;;
70924;SDS011;58577;52.410;13.242;2023-01-19T08:27:57;24.83;;;10.27;;
70924;SDS011;58577;52.410;13.242;2023-01-19T08:30:43;20.05;;;9.95;;
70924;SDS011;58577;52.410;13.242;2023-01-19T08:33:29;19.58;;;8.73;;
70924;SDS011;58577;52.410;13.242;2023-01-19T08:36:15;20.70;;;9.13;;
70924;SDS011;58577;52.410;13.242;2023-01-19T08:39:01;19.42;;;9.07;;
70924;SDS011;58577;52.410;13.242;2023-01-19T08:41:46;18.73;;;8.65;;
70924;SDS011;58577;52.410;13.242;2023-01-19T08:44:32;18.63;;;8.10;;
70924;SDS011;58577;52.410;13.242;2023-01-19T08:47:18;17.58;;;8.82;;
70924;SDS011;58577;52.410;13.242;2023-01-19T08:50:04;19.10;;;8.60;;
70924;SDS011;58577;52.410;13.242;2023-01-19T08:52:50;17.30;;;7.50;;
70924;SDS011;58577;52.410;13.242;2023-01-19T08:55:36;18.83;;;8.10;;
70924;SDS011;58577;52.410;13.242;2023-01-19T08:58:31;20.33;;;8.77;;
70924;SDS011;58577;52.410;13.242;2023-01-19T09:01:17;14.00;;;6.35;;
70924;SDS011;58577;52.410;13.242;2023-01-19T09:04:04;15.90;;;7.28;;
70924;SDS011;58577;52.410;13.242;2023-01-19T09:06:50;14.55;;;7.25;;
70924;SDS011;58577;52.410;13.242;2023-01-19T09:09:36;14.30;;;7.07;;
70924;SDS011;58577;52.410;13.242;2023-01-19T09:12:24;14.30;;;6.90;;
70924;SDS011;58577;52.410;13.242;2023-01-19T09:15:09;14.48;;;6.95;;
70924;SDS011;58577;52.410;13.242;2023-01-19T09:17:56;18.05;;;7.65;;
70924;SDS011;58577;52.410;13.242;2023-01-19T09:20:43;17.83;;;7.00;;
70924;SDS011;58577;52.410;13.242;2023-01-19T09:23:30;15.40;;;6.90;;
70924;SDS011;58577;52.410;13.242;2023-01-19T09:26:16;14.38;;;6.80;;
70924;SDS011;58577;52.410;13.242;2023-01-19T09:29:01;16.70;;;7.00;;
70924;SDS011;58577;52.410;13.242;2023-01-19T09:31:47;15.35;;;6.60;;
70924;SDS011;58577;52.410;13.242;2023-01-19T09:34:33;14.23;;;6.05;;
70924;SDS011;58577;52.410;13.242;2023-01-19T09:37:19;16.00;;;6.88;;
70924;SDS011;58577;52.410;13.242;2023-01-19T09:40:05;14.40;;;6.72;;
70924;SDS011;58577;52.410;13.242;2023-01-19T09:42:55;15.57;;;6.95;;
70924;SDS011;58577;52.410;13.242;2023-01-19T09:45:48;14.38;;;6.68;;
70924;SDS011;58577;52.410;13.242;2023-01-19T09:48:57;16.35;;;7.43;;
70924;SDS011;58577;52.410;13.242;2023-01-19T09:51:52;18.85;;;6.97;;
70924;SDS011;58577;52.410;13.242;2023-01-19T09:57:38;15.85;;;6.97;;
70924;SDS011;58577;52.410;13.242;2023-01-19T10:00:24;15.50;;;7.10;;
70924;SDS011;58577;52.410;13.242;2023-01-19T10:03:15;16.40;;;7.40;;
70924;SDS011;58577;52.410;13.242;2023-01-19T10:06:02;14.27;;;6.93;;
70924;SDS011;58577;52.410;13.242;2023-01-19T10:08:53;13.27;;;6.50;;
70924;SDS011;58577;52.410;13.242;2023-01-19T10:12:07;14.70;;;6.65;;
70924;SDS011;58577;52.410;13.242;2023-01-19T10:15:10;12.07;;;6.22;;
70924;SDS011;58577;52.410;13.242;2023-01-19T10:21:02;14.20;;;6.72;;
70924;SDS011;58577;52.410;13.242;2023-01-19T10:27:04;15.38;;;7.20;;
70924;SDS011;58577;52.410;13.242;2023-01-19T10:29:59;11.82;;;6.57;;
70924;SDS011;58577;52.410;13.242;2023-01-19T10:32:46;15.65;;;6.80;;
70924;SDS011;58577;52.410;13.242;2023-01-19T10:35:32;13.10;;;6.13;;
70924;SDS011;58577;52.410;13.242;2023-01-19T10:38:18;14.88;;;7.40;;
70924;SDS011;58577;52.410;13.242;2023-01-19T10:41:09;13.60;;;7.20;;
70924;SDS011;58577;52.410;13.242;2023-01-19T10:44:00;16.05;;;7.65;;
70924;SDS011;58577;52.410;13.242;2023-01-19T10:46:48;12.75;;;6.80;;
70924;SDS011;58577;52.410;13.242;2023-01-19T10:49:35;14.55;;;7.03;;
70924;SDS011;58577;52.410;13.242;2023-01-19T10:52:28;14.15;;;7.18;;
70924;SDS011;58577;52.410;13.242;2023-01-19T10:55:28;16.85;;;7.57;;
70924;SDS011;58577;52.410;13.242;2023-01-19T10:58:26;14.52;;;6.90;;
70924;SDS011;58577;52.410;13.242;2023-01-19T11:01:16;15.70;;;7.28;;
70924;SDS011;58577;52.410;13.242;2023-01-19T11:04:25;15.20;;;7.15;;
70924;SDS011;58577;52.410;13.242;2023-01-19T11:13:12;16.33;;;7.57;;
70924;SDS011;58577;52.410;13.242;2023-01-19T11:16:04;17.58;;;7.75;;
70924;SDS011;58577;52.410;13.242;2023-01-19T11:18:53;15.00;;;7.28;;
70924;SDS011;58577;52.410;13.242;2023-01-19T11:21:40;16.27;;;7.25;;
70924;SDS011;58577;52.410;13.242;2023-01-19T11:24:26;15.73;;;7.07;;
70924;SDS011;58577;52.410;13.242;2023-01-19T11:27:18;16.17;;;8.05;;
70924;SDS011;58577;52.410;13.242;2023-01-19T11:30:26;14.52;;;7.28;;
70924;SDS011;58577;52.410;13.242;2023-01-19T11:33:22;18.25;;;6.97;;
70924;SDS011;58577;52.410;13.242;2023-01-19T11:36:17;15.68;;;7.50;;
70924;SDS011;58577;52.410;13.242;2023-01-19T11:42:00;17.60;;;7.20;;
70924;SDS011;58577;52.410;13.242;2023-01-19T11:47:43;17.20;;;7.97;;
70924;SDS011;58577;52.410;13.242;2023-01-19T11:50:38;16.77;;;7.60;;
70924;SDS011;58577;52.410;13.242;2023-01-19T11:53:27;17.25;;;7.47;;
70924;SDS011;58577;52.410;13.242;2023-01-19T11:56:19;14.63;;;7.47;;
70924;SDS011;58577;52.410;13.242;2023-01-19T11:59:10;14.55;;;7.03;;
70924;SDS011;58577;52.410;13.242;2023-01-19T12:01:58;16.20;;;7.63;;
70924;SDS011;58577;52.410;13.242;2023-01-19T12:04:47;16.42;;;8.25;;
70924;SDS011;58577;52.410;13.242;2023-01-19T12:07:34;15.27;;;7.40;;
70924;SDS011;58577;52.410;13.242;2023-01-19T12:10:24;11.40;;;5.82;;
70924;SDS011;58577;52.410;13.242;2023-01-19T12:16:05;15.60;;;7.07;;
70924;SDS011;58577;52.410;13.242;2023-01-19T12:19:01;15.95;;;7.18;;
70924;SDS011;58577;52.410;13.242;2023-01-19T12:21:50;16.42;;;7.63;;
70924;SDS011;58577;52.410;13.242;2023-01-19T12:24:39;14.18;;;7.53;;
70924;SDS011;58577;52.410;13.242;2023-01-19T12:30:21;15.25;;;6.97;;
70924;SDS011;58577;52.410;13.242;2023-01-19T12:33:30;15.65;;;7.85;;
70924;SDS011;58577;52.410;13.242;2023-01-19T12:39:47;15.30;;;7.25;;
70924;SDS011;58577;52.410;13.242;2023-01-19T12:42:33;17.13;;;7.53;;
70924;SDS011;58577;52.410;13.242;2023-01-19T12:45:22;17.98;;;7.10;;
70924;SDS011;58577;52.410;13.242;2023-01-19T12:48:31;14.68;;;7.60;;
70924;SDS011;58577;52.410;13.242;2023-01-19T12:51:22;14.43;;;7.53;;
70924;SDS011;58577;52.410;13.242;2023-01-19T12:54:15;13.88;;;7.32;;
70924;SDS011;58577;52.410;13.242;2023-01-19T12:57:20;15.20;;;7.60;;
70924;SDS011;58577;52.410;13.242;2023-01-19T13:00:26;16.50;;;7.18;;
70924;SDS011;58577;52.410;13.242;2023-01-19T13:06:00;17.92;;;7.93;;
70924;SDS011;58577;52.410;13.242;2023-01-19T13:15:26;16.75;;;7.63;;
70924;SDS011;58577;52.410;13.242;2023-01-19T13:25:35;16.00;;;8.10;;
70924;SDS011;58577;52.410;13.242;2023-01-19T13:28:25;15.23;;;7.53;;
70924;SDS011;58577;52.410;13.242;2023-01-19T13:31:16;16.65;;;7.75;;
70924;SDS011;58577;52.410;13.242;2023-01-19T13:34:03;15.55;;;6.80;;
70924;SDS011;58577;52.410;13.242;2023-01-19T13:36:56;18.25;;;8.15;;
70924;SDS011;58577;52.410;13.242;2023-01-19T13:42:35;14.90;;;7.60;;
70924;SDS011;58577;52.410;13.242;2023-01-19T13:48:15;17.40;;;7.47;;
70924;SDS011;58577;52.410;13.242;2023-01-19T13:51:04;17.60;;;8.80;;
70924;SDS011;58577;52.410;13.242;2023-01-19T13:53:55;18.15;;;8.65;;
70924;SDS011;58577;52.410;13.242;2023-01-19T13:56:46;17.63;;;9.18;;
70924;SDS011;58577;52.410;13.242;2023-01-19T13:59:34;17.27;;;8.82;;
70924;SDS011;58577;52.410;13.242;2023-01-19T14:02:20;21.17;;;9.65;;
70924;SDS011;58577;52.410;13.242;2023-01-19T14:05:13;18.38;;;8.15;;
70924;SDS011;58577;52.410;13.242;2023-01-19T14:08:20;19.48;;;9.40;;
70924;SDS011;58577;52.410;13.242;2023-01-19T14:11:12;19.88;;;8.82;;
70924;SDS011;58577;52.410;13.242;2023-01-19T14:13:58;20.08;;;9.32;;
70924;SDS011;58577;52.410;13.242;2023-01-19T14:16:43;23.90;;;10.25;;
70924;SDS011;58577;52.410;13.242;2023-01-19T14:19:45;19.13;;;9.70;;
70924;SDS011;58577;52.410;13.242;2023-01-19T14:22:35;17.90;;;9.63;;
70924;SDS011;58577;52.410;13.242;2023-01-19T14:25:32;21.30;;;10.02;;
70924;SDS011;58577;52.410;13.242;2023-01-19T14:31:21;19.45;;;9.48;;
70924;SDS011;58577;52.410;13.242;2023-01-19T14:37:30;18.67;;;8.98;;
70924;SDS011;58577;52.410;13.242;2023-01-19T14:40:21;18.92;;;10.00;;
70924;SDS011;58577;52.410;13.242;2023-01-19T14:43:09;22.83;;;10.90;;
70924;SDS011;58577;52.410;13.242;2023-01-19T14:45:57;21.30;;;10.73;;
70924;SDS011;58577;52.410;13.242;2023-01-19T14:48:46;21.38;;;10.48;;
70924;SDS011;58577;52.410;13.242;2023-01-19T14:51:34;22.65;;;10.57;;
70924;SDS011;58577;52.410;13.242;2023-01-19T14:54:24;21.92;;;11.35;;
70924;SDS011;58577;52.410;13.242;2023-01-19T14:57:15;20.40;;;10.25;;
70924;SDS011;58577;52.410;13.242;2023-01-19T15:00:05;23.52;;;11.00;;
70924;SDS011;58577;52.410;13.242;2023-01-19T15:02:55;24.60;;;10.88;;
70924;SDS011;58577;52.410;13.242;2023-01-19T15:05:42;23.05;;;10.93;;
70924;SDS011;58577;52.410;13.242;2023-01-19T15:08:31;20.30;;;9.60;;
70924;SDS011;58577;52.410;13.242;2023-01-19T15:11:31;21.10;;;10.48;;
70924;SDS011;58577;52.410;13.242;2023-01-19T15:17:08;23.33;;;10.70;;
70924;SDS011;58577;52.410;13.242;2023-01-19T15:20:14;21.13;;;10.45;;
70924;SDS011;58577;52.410;13.242;2023-01-19T15:23:02;25.38;;;11.10;;
70924;SDS011;58577;52.410;13.242;2023-01-19T15:25:48;20.80;;;10.00;;
70924;SDS011;58577;52.410;13.242;2023-01-19T15:28:34;20.67;;;10.80;;
70924;SDS011;58577;52.410;13.242;2023-01-19T15:31:21;21.73;;;10.40;;
70924;SDS011;58577;52.410;13.242;2023-01-19T15:34:10;21.98;;;10.40;;
70924;SDS011;58577;52.410;13.242;2023-01-19T15:36:57;23.48;;;11.50;;
70924;SDS011;58577;52.410;13.242;2023-01-19T15:39:44;20.92;;;10.25;;
70924;SDS011;58577;52.410;13.242;2023-01-19T15:42:30;22.30;;;10.13;;
70924;SDS011;58577;52.410;13.242;2023-01-19T15:45:36;24.65;;;9.93;;
70924;SDS011;58577;52.410;13.242;2023-01-19T15:48:23;24.08;;;10.00;;
70924;SDS011;58577;52.410;13.242;2023-01-19T15:51:11;18.67;;;9.77;;
70924;SDS011;58577;52.410;13.242;2023-01-19T15:53:58;22.42;;;10.57;;
70924;SDS011;58577;52.410;13.242;2023-01-19T15:56:44;22.35;;;10.50;;
70924;SDS011;58577;52.410;13.242;2023-01-19T15:59:29;22.27;;;9.90;;
70924;SDS011;58577;52.410;13.242;2023-01-19T16:02:15;20.33;;;9.45;;
70924;SDS011;58577;52.410;13.242;2023-01-19T16:05:01;20.83;;;9.85;;
70924;SDS011;58577;52.410;13.242;2023-01-19T16:07:47;21.00;;;10.15;;
70924;SDS011;58577;52.410;13.242;2023-01-19T16:10:34;20.75;;;10.13;;
70924;SDS011;58577;52.410;13.242;2023-01-19T16:13:20;23.77;;;12.57;;
70924;SDS011;58577;52.410;13.242;2023-01-19T16:16:07;20.90;;;9.68;;
70924;SDS011;58577;52.410;13.242;2023-01-19T16:18:58;22.90;;;11.85;;
70924;SDS011;58577;52.410;13.242;2023-01-19T16:21:44;23.38;;;10.23;;
70924;SDS011;58577;52.410;13.242;2023-01-19T16:24:30;23.95;;;11.35;;
70924;SDS011;58577;52.410;13.242;2023-01-19T16:27:16;21.95;;;10.20;;
70924;SDS011;58577;52.410;13.242;2023-01-19T16:30:02;20.77;;;10.13;;
70924;SDS011;58577;52.410;13.242;2023-01-19T16:32:49;21.30;;;10.82;;
70924;SDS011;58577;52.410;13.242;2023-01-19T16:35:35;24.30;;;10.93;;
70924;SDS011;58577;52.410;13.242;2023-01-19T16:38:21;22.13;;;9.70;;
70924;SDS011;58577;52.410;13.242;2023-01-19T16:41:08;21.40;;;9.93;;
70924;SDS011;58577;52.410;13.242;2023-01-19T16:43:55;20.42;;;9.65;;
70924;SDS011;58577;52.410;13.242;2023-01-19T16:46:43;25.90;;;11.95;;
70924;SDS011;58577;52.410;13.242;2023-01-19T16:49:30;22.40;;;10.45;;
70924;SDS011;58577;52.410;13.242;2023-01-19T16:52:17;23.30;;;10.18;;
70924;SDS011;58577;52.410;13.242;2023-01-19T16:55:02;21.55;;;11.30;;
70924;SDS011;58577;52.410;13.242;2023-01-19T17:00:39;22.20;;;10.55;;
70924;SDS011;58577;52.410;13.242;2023-01-19T17:03:25;25.00;;;10.35;;
70924;SDS011;58577;52.410;13.242;2023-01-19T17:06:12;21.77;;;9.82;;
70924;SDS011;58577;52.410;13.242;2023-01-19T17:09:02;26.20;;;10.65;;
70924;SDS011;58577;52.410;13.242;2023-01-19T17:11:48;21.17;;;9.65;;
70924;SDS011;58577;52.410;13.242;2023-01-19T17:14:34;19.27;;;9.27;;
70924;SDS011;58577;52.410;13.242;2023-01-19T17:17:21;20.70;;;10.18;;
70924;SDS011;58577;52.410;13.242;2023-01-19T17:20:07;20.65;;;9.57;;
70924;SDS011;58577;52.410;13.242;2023-01-19T17:22:53;21.85;;;10.00;;
70924;SDS011;58577;52.410;13.242;2023-01-19T17:25:40;17.85;;;9.05;;
70924;SDS011;58577;52.410;13.242;2023-01-19T17:28:26;19.40;;;9.20;;
70924;SDS011;58577;52.410;13.242;2023-01-19T17:31:13;18.90;;;9.90;;
70924;SDS011;58577;52.410;13.242;2023-01-19T17:34:03;22.85;;;9.98;;
70924;SDS011;58577;52.410;13.242;2023-01-19T17:36:49;19.65;;;9.45;;
70924;SDS011;58577;52.410;13.242;2023-01-19T17:39:35;20.50;;;8.23;;